Isabel L — WDF6141 — position and weather

sailwx.info

Track history (hours):
 
Tides and Currents Weather Stations Pressure Air Temp Water Temp Dewpoint Dewpoint Depression Visibility Wind Speed Wind Dir Waves Ship Positions

Isabel L

Owner: SO CAL SHIP SERVICES, TERMINAL ISLAND, CA. More information available from US FCC via Universal Licensing System and Coast Guard Vessel Documentation Center.

Last reported at 2018-Jun-22 09:00 UTC. Time now 2018-Jun-22 09:22 UTC.
Position N 33°43' W 118°07'.

Length 28 m; draft 2 m.

Type: Ship (hazmat cat B). MMSI: 367471080.

Date/timePositionNaut miles runAvg speedWind from/ knotsBaromVisibWave heightAir tempDewpointWater temp
2018-Jun-22 09:00N 33°43' W 118°07'0 0.0
2018-Jun-22 08:30N 33°43' W 118°07'0 0.0
2018-Jun-22 08:00N 33°43' W 118°07'0 0.0
2018-Jun-22 07:30N 33°43' W 118°07'0 0.0
2018-Jun-22 07:00N 33°43' W 118°07'0 0.0
2018-Jun-22 06:31N 33°43' W 118°07'0 0.0
2018-Jun-22 06:00N 33°43' W 118°07'0 0.0
2018-Jun-22 05:30N 33°43' W 118°07'0 0.0
2018-Jun-22 05:00N 33°43' W 118°07'0 0.0
2018-Jun-22 04:30N 33°43' W 118°07'0 0.0
2018-Jun-22 04:00N 33°43' W 118°07'0 0.0
2018-Jun-22 03:30N 33°43' W 118°07'0 0.0
2018-Jun-22 03:00N 33°43' W 118°07'3 5.0
2018-Jun-22 02:26N 33°40' W 118°08'4 9.0
2018-Jun-22 02:00N 33°37' W 118°09'714.9
2018-Jun-22 01:31N 33°44' W 118°07'5 9.5
2018-Jun-22 01:00N 33°40' W 118°04'6 1.1
2018-Jun-21 19:50N 33°36' W 118°09'413.2
2018-Jun-21 19:30N 33°40' W 118°07'3 6.3
2018-Jun-21 19:00N 33°43' W 118°07'0 0.0
2018-Jun-21 18:30N 33°43' W 118°07'0 0.0
2018-Jun-21 18:00N 33°43' W 118°07'0 0.0
2018-Jun-21 17:30N 33°43' W 118°07'2 3.8
2018-Jun-21 17:00N 33°42' W 118°05'712.0
2018-Jun-21 16:26N 33°36' W 118°09'614.0
2018-Jun-21 16:01N 33°42' W 118°07'2 4.8
2018-Jun-21 15:30N 33°44' W 118°07'1 1.9
2018-Jun-21 15:00N 33°43' W 118°07'4 8.7
2018-Jun-21 14:30N 33°40' W 118°04'611.2
2018-Jun-21 14:00N 33°36' W 118°08'815.2
2018-Jun-21 13:30N 33°43' W 118°07'4 8.5
2018-Jun-21 13:00N 33°40' W 118°04'5 9.4
2018-Jun-21 12:30N 33°44' W 118°07'1 1.4
2018-Jun-21 12:00N 33°43' W 118°07'0 0.0
2018-Jun-21 11:30N 33°43' W 118°07'0 0.0
2018-Jun-21 11:00N 33°43' W 118°07'0 0.0
2018-Jun-21 10:30N 33°43' W 118°07'0 0.0
2018-Jun-21 10:00N 33°43' W 118°07'0 0.0
2018-Jun-21 09:30N 33°43' W 118°07'0 0.0
2018-Jun-21 09:00N 33°43' W 118°07'0 0.0
2018-Jun-21 08:30N 33°43' W 118°07'0 0.0
2018-Jun-21 08:00N 33°43' W 118°07'0 0.0
2018-Jun-21 07:30N 33°43' W 118°07'0 0.0
2018-Jun-21 07:00N 33°43' W 118°07'0 0.0
2018-Jun-21 06:30N 33°43' W 118°07'0 0.0
2018-Jun-21 06:00N 33°43' W 118°07'0 0.0
2018-Jun-21 05:30N 33°43' W 118°07'0 0.0
2018-Jun-21 05:00N 33°43' W 118°07'0 0.0
2018-Jun-21 04:30N 33°43' W 118°07'0 0.0
2018-Jun-21 04:00N 33°43' W 118°07'0 0.0
2018-Jun-21 03:30N 33°43' W 118°07'0 0.0
2018-Jun-21 03:00N 33°43' W 118°07'0 0.3
2018-Jun-21 02:30N 33°43' W 118°07'714.8
2018-Jun-21 02:00N 33°36' W 118°08'612.6
2018-Jun-21 01:30N 33°42' W 118°07'2 1.0
2018-Jun-20 23:19N 33°44' W 118°06'513.1
2018-Jun-20 22:57N 33°40' W 118°04'11 2.1
2018-Jun-20 17:39N 33°44' W 118°16'1 4.2
2018-Jun-20 17:30N 33°43' W 118°16'713.4
2018-Jun-20 17:00N 33°44' W 118°08'610.9
2018-Jun-20 16:29N 33°40' W 118°04'0 0.1
2018-Jun-20 16:00N 33°40' W 118°04'0 0.1
2018-Jun-20 15:30N 33°40' W 118°04'0 0.1
2018-Jun-20 15:00N 33°40' W 118°04'0 0.1
2018-Jun-20 14:30N 33°40' W 118°04'611.6
2018-Jun-20 14:00N 33°36' W 118°09'714.5
2018-Jun-20 13:30N 33°43' W 118°07'3 5.8
2018-Jun-20 13:00N 33°41' W 118°05'3 6.8
2018-Jun-20 12:30N 33°44' W 118°07'0 0.7
2018-Jun-20 12:00N 33°43' W 118°07'0 0.3
2018-Jun-20 11:30N 33°43' W 118°07'0 0.0
2018-Jun-20 11:00N 33°43' W 118°07'0 0.0
2018-Jun-20 10:30N 33°43' W 118°07'0 0.0
2018-Jun-20 10:00N 33°43' W 118°07'0 0.0
2018-Jun-20 09:30N 33°43' W 118°07'0 0.0
2018-Jun-20 09:00N 33°43' W 118°07'0 0.0
2018-Jun-20 08:30N 33°43' W 118°07'0 0.0
2018-Jun-20 07:58N 33°43' W 118°07'0 0.0
2018-Jun-20 07:28N 33°43' W 118°07'0 0.0
2018-Jun-20 07:00N 33°43' W 118°07'0 0.0
2018-Jun-20 06:30N 33°43' W 118°07'3 5.9
2018-Jun-20 06:00N 33°43' W 118°10'510.0
2018-Jun-20 05:29N 33°44' W 118°16'0 0.0
2018-Jun-20 05:00N 33°44' W 118°16'0 0.0
2018-Jun-20 04:30N 33°44' W 118°16'0 0.0
2018-Jun-20 03:57N 33°44' W 118°16'0 0.0
2018-Jun-20 03:30N 33°44' W 118°16'3 6.9
2018-Jun-20 03:00N 33°44' W 118°12'5 9.3
2018-Jun-20 02:29N 33°42' W 118°07'613.2
2018-Jun-20 02:00N 33°36' W 118°09'8 0.3
2018-Jun-19 00:08N 33°44' W 118°07'1 5.0
2018-Jun-19 00:00N 33°43' W 118°07'0 0.0
2018-Jun-18 23:31N 33°43' W 118°07'0 0.0
2018-Jun-18 23:00N 33°43' W 118°07'8 1.6
2018-Jun-18 18:23N 33°36' W 118°08'811.5
2018-Jun-18 17:40N 33°44' W 118°07'214.2
2018-Jun-18 17:30N 33°42' W 118°05'3 1.5
2018-Jun-18 15:46N 33°40' W 118°04'0 0.0
2018-Jun-18 15:30N 33°40' W 118°04'  
2018-Jun-15 16:03N 33°44' W 118°11'4 7.7
2018-Jun-15 15:33N 33°43' W 118°07'0 0.0
2018-Jun-15 15:30N 33°43' W 118°07'1 1.5
2018-Jun-15 15:00N 33°43' W 118°06'4 8.0
2018-Jun-15 14:29N 33°39' W 118°05'4 8.8
2018-Jun-15 14:01N 33°36' W 118°09'714.6
2018-Jun-15 13:30N 33°43' W 118°07'4 7.0
2018-Jun-15 12:59N 33°40' W 118°04'5 9.5
2018-Jun-15 12:30N 33°44' W 118°07'1 1.1
2018-Jun-15 12:00N 33°43' W 118°07'0 0.6
2018-Jun-15 11:30N 33°43' W 118°07'0 0.0
2018-Jun-15 11:00N 33°43' W 118°07'0 0.0
2018-Jun-15 10:30N 33°43' W 118°07'0 0.0
2018-Jun-15 10:00N 33°43' W 118°07'0 0.0
2018-Jun-15 09:30N 33°43' W 118°07'0 0.0
2018-Jun-15 09:00N 33°43' W 118°07'0 0.0
2018-Jun-15 08:30N 33°43' W 118°07'0 0.0
2018-Jun-15 08:00N 33°43' W 118°07'0 0.0
2018-Jun-15 07:30N 33°43' W 118°07'0 0.0
2018-Jun-15 07:00N 33°43' W 118°07'0 0.0
2018-Jun-14 17:51N 33°43' W 118°07'1 3.6
2018-Jun-14 17:30N 33°42' W 118°07'612.4
2018-Jun-14 17:01N 33°43' W 118°14'2 3.4
2018-Jun-14 16:30N 33°44' W 118°16'713.6
2018-Jun-14 16:00N 33°38' W 118°11'3 5.1
2018-Jun-14 15:30N 33°38' W 118°08'611.6
2018-Jun-14 15:00N 33°44' W 118°07'2 4.4
2018-Jun-14 14:30N 33°42' W 118°07'510.8
2018-Jun-14 14:00N 33°37' W 118°08'714.6
2018-Jun-14 13:30N 33°44' W 118°07'5 9.4
2018-Jun-14 13:00N 33°40' W 118°04'5 9.4
2018-Jun-14 12:30N 33°44' W 118°07'1 1.2
2018-Jun-14 11:59N 33°43' W 118°07'0 0.0
2018-Jun-14 11:30N 33°43' W 118°07'0 0.0
2018-Jun-14 11:00N 33°43' W 118°07'0 0.0
2018-Jun-14 10:30N 33°43' W 118°07'0 0.0
2018-Jun-14 10:00N 33°43' W 118°07'0 0.0
2018-Jun-14 09:30N 33°43' W 118°07'0 0.0
2018-Jun-14 09:00N 33°43' W 118°07'0 0.0
2018-Jun-14 08:30N 33°43' W 118°07'0 0.0
2018-Jun-14 08:00N 33°43' W 118°07'0 0.0
2018-Jun-14 07:30N 33°43' W 118°07'0 0.0
2018-Jun-14 07:00N 33°43' W 118°07'0 0.0
2018-Jun-14 06:30N 33°43' W 118°07'0 0.0
2018-Jun-14 05:59N 33°43' W 118°07'0 0.0
2018-Jun-14 05:30N 33°43' W 118°07'0 0.0
2018-Jun-14 05:00N 33°43' W 118°07'3 6.3
2018-Jun-14 04:30N 33°40' W 118°07'4 7.8
2018-Jun-14 03:57N 33°36' W 118°08'0 0.0
2018-Jun-14 03:29N 33°36' W 118°08'612.7
2018-Jun-14 03:00N 33°42' W 118°07'1 1.5
2018-Jun-14 02:30N 33°41' W 118°07'5 9.7
2018-Jun-14 02:00N 33°37' W 118°08'714.7
2018-Jun-14 01:30N 33°44' W 118°07'5 9.1
2018-Jun-14 01:00N 33°40' W 118°04'4 2.7
2018-Jun-13 23:27N 33°43' W 118°07'8 1.3
2018-Jun-13 17:22N 33°44' W 118°16'411.9
2018-Jun-13 17:00N 33°44' W 118°11'4 7.0
2018-Jun-13 16:30N 33°43' W 118°07'5 8.3
2018-Jun-13 15:55N 33°39' W 118°05'4 9.4
2018-Jun-13 15:29N 33°36' W 118°09'0 0.0
2018-Jun-13 14:57N 33°36' W 118°09'0 0.0
2018-Jun-13 14:30N 33°36' W 118°09'1 1.2
2018-Jun-13 14:00N 33°36' W 118°08'714.5
2018-Jun-13 13:31N 33°43' W 118°07'4 7.6
2018-Jun-13 13:00N 33°40' W 118°04'4 7.8
2018-Jun-13 12:30N 33°43' W 118°07'0 0.6
2018-Jun-13 12:00N 33°43' W 118°07'0 0.0
2018-Jun-13 11:30N 33°43' W 118°07'0 0.0
2018-Jun-13 10:59N 33°43' W 118°07'0 0.0
2018-Jun-13 10:30N 33°43' W 118°07'0 0.0
2018-Jun-13 10:00N 33°43' W 118°07'0 0.0
2018-Jun-13 09:29N 33°43' W 118°07'0 0.0
2018-Jun-13 08:59N 33°43' W 118°07'0 0.0
2018-Jun-13 08:30N 33°43' W 118°07'0 0.0
2018-Jun-13 08:00N 33°43' W 118°07'0 0.0
2018-Jun-13 07:29N 33°43' W 118°07'0 0.0
2018-Jun-13 06:59N 33°43' W 118°07'0 0.0
2018-Jun-13 06:30N 33°43' W 118°07'0 0.0
2018-Jun-13 05:58N 33°43' W 118°07'0 0.0
2018-Jun-13 05:30N 33°43' W 118°07'0 0.0
2018-Jun-13 05:00N 33°43' W 118°07'0 0.0
2018-Jun-13 04:30N 33°43' W 118°07'0 0.0
2018-Jun-13 04:00N 33°43' W 118°07'0 0.0
2018-Jun-12 23:39N 33°43' W 118°07'4 0.6
2018-Jun-12 16:35N 33°40' W 118°04'512.8
2018-Jun-12 16:12N 33°36' W 118°08'1 3.2
2018-Jun-12 16:00N 33°36' W 118°09'0 0.0
2018-Jun-12 15:30N 33°36' W 118°09'0 0.0
2018-Jun-12 14:58N 33°36' W 118°09'0 0.0
2018-Jun-12 14:30N 33°36' W 118°09'2 3.2
2018-Jun-12 14:00N 33°37' W 118°08'713.5
2018-Jun-12 13:30N 33°44' W 118°06'5 9.2
2018-Jun-12 12:57N 33°40' W 118°04'5 9.4
2018-Jun-12 12:29N 33°43' W 118°07'0 0.6
2018-Jun-12 11:59N 33°43' W 118°07'0 0.0
2018-Jun-12 11:30N 33°43' W 118°07'0 0.0
2018-Jun-12 11:00N 33°43' W 118°07'0 0.0
2018-Jun-12 10:30N 33°43' W 118°07'0 0.0
2018-Jun-12 10:00N 33°43' W 118°07'0 0.0
2018-Jun-12 09:30N 33°43' W 118°07'  
Track history (hours):
 
Tides and Currents Weather Stations Pressure Air Temp Water Temp Dewpoint Dewpoint Depression Visibility Wind Speed Wind Dir Waves Ship Positions

Isabel L

Owner: SO CAL SHIP SERVICES, TERMINAL ISLAND, CA. More information available from US FCC via Universal Licensing System and Coast Guard Vessel Documentation Center.

Last reported at 2018-Jun-22 09:00 UTC. Time now 2018-Jun-22 09:22 UTC.
Position N 33°43' W 118°07'.

Length 28 m; draft 2 m.

Type: Ship (hazmat cat B). MMSI: 367471080.

Date/timePositionNaut miles runAvg speedWind from/ knotsBaromVisibWave heightAir tempDewpointWater temp
2018-Jun-22 09:00N 33°43' W 118°07'0 0.0
2018-Jun-22 08:30N 33°43' W 118°07'0 0.0
2018-Jun-22 08:00N 33°43' W 118°07'0 0.0
2018-Jun-22 07:30N 33°43' W 118°07'0 0.0
2018-Jun-22 07:00N 33°43' W 118°07'0 0.0
2018-Jun-22 06:31N 33°43' W 118°07'0 0.0
2018-Jun-22 06:00N 33°43' W 118°07'0 0.0
2018-Jun-22 05:30N 33°43' W 118°07'0 0.0
2018-Jun-22 05:00N 33°43' W 118°07'0 0.0
2018-Jun-22 04:30N 33°43' W 118°07'0 0.0
2018-Jun-22 04:00N 33°43' W 118°07'0 0.0
2018-Jun-22 03:30N 33°43' W 118°07'0 0.0
2018-Jun-22 03:00N 33°43' W 118°07'3 5.0
2018-Jun-22 02:26N 33°40' W 118°08'4 9.0
2018-Jun-22 02:00N 33°37' W 118°09'714.9
2018-Jun-22 01:31N 33°44' W 118°07'5 9.5
2018-Jun-22 01:00N 33°40' W 118°04'6 1.1
2018-Jun-21 19:50N 33°36' W 118°09'413.2
2018-Jun-21 19:30N 33°40' W 118°07'3 6.3
2018-Jun-21 19:00N 33°43' W 118°07'0 0.0
2018-Jun-21 18:30N 33°43' W 118°07'0 0.0
2018-Jun-21 18:00N 33°43' W 118°07'0 0.0
2018-Jun-21 17:30N 33°43' W 118°07'2 3.8
2018-Jun-21 17:00N 33°42' W 118°05'712.0
2018-Jun-21 16:26N 33°36' W 118°09'614.0
2018-Jun-21 16:01N 33°42' W 118°07'2 4.8
2018-Jun-21 15:30N 33°44' W 118°07'1 1.9
2018-Jun-21 15:00N 33°43' W 118°07'4 8.7
2018-Jun-21 14:30N 33°40' W 118°04'611.2
2018-Jun-21 14:00N 33°36' W 118°08'815.2
2018-Jun-21 13:30N 33°43' W 118°07'4 8.5
2018-Jun-21 13:00N 33°40' W 118°04'5 9.4
2018-Jun-21 12:30N 33°44' W 118°07'1 1.4
2018-Jun-21 12:00N 33°43' W 118°07'0 0.0
2018-Jun-21 11:30N 33°43' W 118°07'0 0.0
2018-Jun-21 11:00N 33°43' W 118°07'0 0.0
2018-Jun-21 10:30N 33°43' W 118°07'0 0.0
2018-Jun-21 10:00N 33°43' W 118°07'0 0.0
2018-Jun-21 09:30N 33°43' W 118°07'0 0.0
2018-Jun-21 09:00N 33°43' W 118°07'0 0.0
2018-Jun-21 08:30N 33°43' W 118°07'0 0.0
2018-Jun-21 08:00N 33°43' W 118°07'0 0.0
2018-Jun-21 07:30N 33°43' W 118°07'0 0.0
2018-Jun-21 07:00N 33°43' W 118°07'0 0.0
2018-Jun-21 06:30N 33°43' W 118°07'0 0.0
2018-Jun-21 06:00N 33°43' W 118°07'0 0.0
2018-Jun-21 05:30N 33°43' W 118°07'0 0.0
2018-Jun-21 05:00N 33°43' W 118°07'0 0.0
2018-Jun-21 04:30N 33°43' W 118°07'0 0.0
2018-Jun-21 04:00N 33°43' W 118°07'0 0.0
2018-Jun-21 03:30N 33°43' W 118°07'0 0.0
2018-Jun-21 03:00N 33°43' W 118°07'0 0.3
2018-Jun-21 02:30N 33°43' W 118°07'714.8
2018-Jun-21 02:00N 33°36' W 118°08'612.6
2018-Jun-21 01:30N 33°42' W 118°07'2 1.0
2018-Jun-20 23:19N 33°44' W 118°06'513.1
2018-Jun-20 22:57N 33°40' W 118°04'11 2.1
2018-Jun-20 17:39N 33°44' W 118°16'1 4.2
2018-Jun-20 17:30N 33°43' W 118°16'713.4
2018-Jun-20 17:00N 33°44' W 118°08'610.9
2018-Jun-20 16:29N 33°40' W 118°04'0 0.1
2018-Jun-20 16:00N 33°40' W 118°04'0 0.1
2018-Jun-20 15:30N 33°40' W 118°04'0 0.1
2018-Jun-20 15:00N 33°40' W 118°04'0 0.1
2018-Jun-20 14:30N 33°40' W 118°04'611.6
2018-Jun-20 14:00N 33°36' W 118°09'714.5
2018-Jun-20 13:30N 33°43' W 118°07'3 5.8
2018-Jun-20 13:00N 33°41' W 118°05'3 6.8
2018-Jun-20 12:30N 33°44' W 118°07'0 0.7
2018-Jun-20 12:00N 33°43' W 118°07'0 0.3
2018-Jun-20 11:30N 33°43' W 118°07'0 0.0
2018-Jun-20 11:00N 33°43' W 118°07'0 0.0
2018-Jun-20 10:30N 33°43' W 118°07'0 0.0
2018-Jun-20 10:00N 33°43' W 118°07'0 0.0
2018-Jun-20 09:30N 33°43' W 118°07'0 0.0
2018-Jun-20 09:00N 33°43' W 118°07'0 0.0
2018-Jun-20 08:30N 33°43' W 118°07'0 0.0
2018-Jun-20 07:58N 33°43' W 118°07'0 0.0
2018-Jun-20 07:28N 33°43' W 118°07'0 0.0
2018-Jun-20 07:00N 33°43' W 118°07'0 0.0
2018-Jun-20 06:30N 33°43' W 118°07'3 5.9
2018-Jun-20 06:00N 33°43' W 118°10'510.0
2018-Jun-20 05:29N 33°44' W 118°16'0 0.0
2018-Jun-20 05:00N 33°44' W 118°16'0 0.0
2018-Jun-20 04:30N 33°44' W 118°16'0 0.0
2018-Jun-20 03:57N 33°44' W 118°16'0 0.0
2018-Jun-20 03:30N 33°44' W 118°16'3 6.9
2018-Jun-20 03:00N 33°44' W 118°12'5 9.3
2018-Jun-20 02:29N 33°42' W 118°07'613.2
2018-Jun-20 02:00N 33°36' W 118°09'8 0.3
2018-Jun-19 00:08N 33°44' W 118°07'1 5.0
2018-Jun-19 00:00N 33°43' W 118°07'0 0.0
2018-Jun-18 23:31N 33°43' W 118°07'0 0.0
2018-Jun-18 23:00N 33°43' W 118°07'8 1.6
2018-Jun-18 18:23N 33°36' W 118°08'811.5
2018-Jun-18 17:40N 33°44' W 118°07'214.2
2018-Jun-18 17:30N 33°42' W 118°05'3 1.5
2018-Jun-18 15:46N 33°40' W 118°04'0 0.0
2018-Jun-18 15:30N 33°40' W 118°04'  
2018-Jun-15 16:03N 33°44' W 118°11'4 7.7
2018-Jun-15 15:33N 33°43' W 118°07'0 0.0
2018-Jun-15 15:30N 33°43' W 118°07'1 1.5
2018-Jun-15 15:00N 33°43' W 118°06'4 8.0
2018-Jun-15 14:29N 33°39' W 118°05'4 8.8
2018-Jun-15 14:01N 33°36' W 118°09'714.6
2018-Jun-15 13:30N 33°43' W 118°07'4 7.0
2018-Jun-15 12:59N 33°40' W 118°04'5 9.5
2018-Jun-15 12:30N 33°44' W 118°07'1 1.1
2018-Jun-15 12:00N 33°43' W 118°07'0 0.6
2018-Jun-15 11:30N 33°43' W 118°07'0 0.0
2018-Jun-15 11:00N 33°43' W 118°07'0 0.0
2018-Jun-15 10:30N 33°43' W 118°07'0 0.0
2018-Jun-15 10:00N 33°43' W 118°07'0 0.0
2018-Jun-15 09:30N 33°43' W 118°07'0 0.0
2018-Jun-15 09:00N 33°43' W 118°07'0 0.0
2018-Jun-15 08:30N 33°43' W 118°07'0 0.0
2018-Jun-15 08:00N 33°43' W 118°07'0 0.0
2018-Jun-15 07:30N 33°43' W 118°07'0 0.0
2018-Jun-15 07:00N 33°43' W 118°07'0 0.0
2018-Jun-14 17:51N 33°43' W 118°07'1 3.6
2018-Jun-14 17:30N 33°42' W 118°07'612.4
2018-Jun-14 17:01N 33°43' W 118°14'2 3.4
2018-Jun-14 16:30N 33°44' W 118°16'713.6
2018-Jun-14 16:00N 33°38' W 118°11'3 5.1
2018-Jun-14 15:30N 33°38' W 118°08'611.6
2018-Jun-14 15:00N 33°44' W 118°07'2 4.4
2018-Jun-14 14:30N 33°42' W 118°07'510.8
2018-Jun-14 14:00N 33°37' W 118°08'714.6
2018-Jun-14 13:30N 33°44' W 118°07'5 9.4
2018-Jun-14 13:00N 33°40' W 118°04'5 9.4
2018-Jun-14 12:30N 33°44' W 118°07'1 1.2
2018-Jun-14 11:59N 33°43' W 118°07'0 0.0
2018-Jun-14 11:30N 33°43' W 118°07'0 0.0
2018-Jun-14 11:00N 33°43' W 118°07'0 0.0
2018-Jun-14 10:30N 33°43' W 118°07'0 0.0
2018-Jun-14 10:00N 33°43' W 118°07'0 0.0
2018-Jun-14 09:30N 33°43' W 118°07'0 0.0
2018-Jun-14 09:00N 33°43' W 118°07'0 0.0
2018-Jun-14 08:30N 33°43' W 118°07'0 0.0
2018-Jun-14 08:00N 33°43' W 118°07'0 0.0
2018-Jun-14 07:30N 33°43' W 118°07'0 0.0
2018-Jun-14 07:00N 33°43' W 118°07'0 0.0
2018-Jun-14 06:30N 33°43' W 118°07'0 0.0
2018-Jun-14 05:59N 33°43' W 118°07'0 0.0
2018-Jun-14 05:30N 33°43' W 118°07'0 0.0
2018-Jun-14 05:00N 33°43' W 118°07'3 6.3
2018-Jun-14 04:30N 33°40' W 118°07'4 7.8
2018-Jun-14 03:57N 33°36' W 118°08'0 0.0
2018-Jun-14 03:29N 33°36' W 118°08'612.7
2018-Jun-14 03:00N 33°42' W 118°07'1 1.5
2018-Jun-14 02:30N 33°41' W 118°07'5 9.7
2018-Jun-14 02:00N 33°37' W 118°08'714.7
2018-Jun-14 01:30N 33°44' W 118°07'5 9.1
2018-Jun-14 01:00N 33°40' W 118°04'4 2.7
2018-Jun-13 23:27N 33°43' W 118°07'8 1.3
2018-Jun-13 17:22N 33°44' W 118°16'411.9
2018-Jun-13 17:00N 33°44' W 118°11'4 7.0
2018-Jun-13 16:30N 33°43' W 118°07'5 8.3
2018-Jun-13 15:55N 33°39' W 118°05'4 9.4
2018-Jun-13 15:29N 33°36' W 118°09'0 0.0
2018-Jun-13 14:57N 33°36' W 118°09'0 0.0
2018-Jun-13 14:30N 33°36' W 118°09'1 1.2
2018-Jun-13 14:00N 33°36' W 118°08'714.5
2018-Jun-13 13:31N 33°43' W 118°07'4 7.6
2018-Jun-13 13:00N 33°40' W 118°04'4 7.8
2018-Jun-13 12:30N 33°43' W 118°07'0 0.6
2018-Jun-13 12:00N 33°43' W 118°07'0 0.0
2018-Jun-13 11:30N 33°43' W 118°07'0 0.0
2018-Jun-13 10:59N 33°43' W 118°07'0 0.0
2018-Jun-13 10:30N 33°43' W 118°07'0 0.0
2018-Jun-13 10:00N 33°43' W 118°07'0 0.0
2018-Jun-13 09:29N 33°43' W 118°07'0 0.0
2018-Jun-13 08:59N 33°43' W 118°07'0 0.0
2018-Jun-13 08:30N 33°43' W 118°07'0 0.0
2018-Jun-13 08:00N 33°43' W 118°07'0 0.0
2018-Jun-13 07:29N 33°43' W 118°07'0 0.0
2018-Jun-13 06:59N 33°43' W 118°07'0 0.0
2018-Jun-13 06:30N 33°43' W 118°07'0 0.0
2018-Jun-13 05:58N 33°43' W 118°07'0 0.0
2018-Jun-13 05:30N 33°43' W 118°07'0 0.0
2018-Jun-13 05:00N 33°43' W 118°07'0 0.0
2018-Jun-13 04:30N 33°43' W 118°07'0 0.0
2018-Jun-13 04:00N 33°43' W 118°07'0 0.0
2018-Jun-12 23:39N 33°43' W 118°07'4 0.6
2018-Jun-12 16:35N 33°40' W 118°04'512.8
2018-Jun-12 16:12N 33°36' W 118°08'1 3.2
2018-Jun-12 16:00N 33°36' W 118°09'0 0.0
2018-Jun-12 15:30N 33°36' W 118°09'0 0.0
2018-Jun-12 14:58N 33°36' W 118°09'0 0.0
2018-Jun-12 14:30N 33°36' W 118°09'2 3.2
2018-Jun-12 14:00N 33°37' W 118°08'713.5
2018-Jun-12 13:30N 33°44' W 118°06'5 9.2
2018-Jun-12 12:57N 33°40' W 118°04'5 9.4
2018-Jun-12 12:29N 33°43' W 118°07'0 0.6
2018-Jun-12 11:59N 33°43' W 118°07'0 0.0
2018-Jun-12 11:30N 33°43' W 118°07'0 0.0
2018-Jun-12 11:00N 33°43' W 118°07'0 0.0
2018-Jun-12 10:30N 33°43' W 118°07'0 0.0
2018-Jun-12 10:00N 33°43' W 118°07'0 0.0
2018-Jun-12 09:30N 33°43' W 118°07'  

Dump ship's entire track history